sensor_id;sensor_type;location;lat;lon;timestamp;temperature;humidity
27384;DHT22;14851;51.166;4.760;2023-04-24T00:00:42;10.00;99.90
27384;DHT22;14851;51.166;4.760;2023-04-24T00:03:10;10.00;99.90
27384;DHT22;14851;51.166;4.760;2023-04-24T00:05:36;10.00;99.90
27384;DHT22;14851;51.166;4.760;2023-04-24T00:08:02;10.00;99.90
27384;DHT22;14851;51.166;4.760;2023-04-24T00:10:28;10.00;99.90
27384;DHT22;14851;51.166;4.760;2023-04-24T00:12:54;10.00;99.90
27384;DHT22;14851;51.166;4.760;2023-04-24T00:15:21;10.00;99.90
27384;DHT22;14851;51.166;4.760;2023-04-24T00:17:47;10.00;99.90
27384;DHT22;14851;51.166;4.760;2023-04-24T00:20:13;9.90;99.90
27384;DHT22;14851;51.166;4.760;2023-04-24T00:22:40;10.00;99.90
27384;DHT22;14851;51.166;4.760;2023-04-24T00:25:06;10.00;99.90
27384;DHT22;14851;51.166;4.760;2023-04-24T00:27:32;9.90;99.90
27384;DHT22;14851;51.166;4.760;2023-04-24T00:30:00;9.90;99.90
27384;DHT22;14851;51.166;4.760;2023-04-24T00:32:26;9.90;99.90
27384;DHT22;14851;51.166;4.760;2023-04-24T00:34:52;10.00;99.90
27384;DHT22;14851;51.166;4.760;2023-04-24T00:37:20;9.90;99.90
27384;DHT22;14851;51.166;4.760;2023-04-24T00:39:46;9.90;99.90
27384;DHT22;14851;51.166;4.760;2023-04-24T00:42:12;9.90;99.90
27384;DHT22;14851;51.166;4.760;2023-04-24T00:44:38;9.90;99.90
27384;DHT22;14851;51.166;4.760;2023-04-24T00:47:06;9.90;99.90
27384;DHT22;14851;51.166;4.760;2023-04-24T00:49:35;9.90;99.90
27384;DHT22;14851;51.166;4.760;2023-04-24T00:52:02;9.90;99.90
27384;DHT22;14851;51.166;4.760;2023-04-24T00:54:36;9.90;99.90
27384;DHT22;14851;51.166;4.760;2023-04-24T00:57:05;9.90;99.90
27384;DHT22;14851;51.166;4.760;2023-04-24T00:59:31;9.90;99.90
27384;DHT22;14851;51.166;4.760;2023-04-24T01:01:57;9.90;99.90
27384;DHT22;14851;51.166;4.760;2023-04-24T01:04:24;9.90;99.90
27384;DHT22;14851;51.166;4.760;2023-04-24T01:06:51;9.90;99.90
27384;DHT22;14851;51.166;4.760;2023-04-24T01:09:18;9.90;99.90
27384;DHT22;14851;51.166;4.760;2023-04-24T01:11:44;9.90;99.90
27384;DHT22;14851;51.166;4.760;2023-04-24T01:14:11;9.90;99.90
27384;DHT22;14851;51.166;4.760;2023-04-24T01:16:39;9.90;99.90
27384;DHT22;14851;51.166;4.760;2023-04-24T01:19:13;9.90;99.90
27384;DHT22;14851;51.166;4.760;2023-04-24T01:21:41;9.90;99.90
27384;DHT22;14851;51.166;4.760;2023-04-24T01:24:09;9.90;99.90
27384;DHT22;14851;51.166;4.760;2023-04-24T01:26:35;9.90;99.90
27384;DHT22;14851;51.166;4.760;2023-04-24T01:29:01;9.90;99.90
27384;DHT22;14851;51.166;4.760;2023-04-24T01:31:27;9.90;99.90
27384;DHT22;14851;51.166;4.760;2023-04-24T01:33:54;9.90;99.90
27384;DHT22;14851;51.166;4.760;2023-04-24T01:36:24;9.80;99.90
27384;DHT22;14851;51.166;4.760;2023-04-24T01:38:51;9.90;99.90
27384;DHT22;14851;51.166;4.760;2023-04-24T01:41:17;9.90;99.90
27384;DHT22;14851;51.166;4.760;2023-04-24T01:43:44;9.80;99.90
27384;DHT22;14851;51.166;4.760;2023-04-24T01:46:10;9.90;99.90
27384;DHT22;14851;51.166;4.760;2023-04-24T01:48:38;9.80;99.90
27384;DHT22;14851;51.166;4.760;2023-04-24T01:51:06;9.90;99.90
27384;DHT22;14851;51.166;4.760;2023-04-24T01:53:32;9.90;99.90
27384;DHT22;14851;51.166;4.760;2023-04-24T01:55:58;9.80;99.90
27384;DHT22;14851;51.166;4.760;2023-04-24T01:58:24;9.80;99.90
27384;DHT22;14851;51.166;4.760;2023-04-24T02:00:58;9.80;99.90
27384;DHT22;14851;51.166;4.760;2023-04-24T02:03:28;9.80;99.90
27384;DHT22;14851;51.166;4.760;2023-04-24T02:05:57;9.80;99.90
27384;DHT22;14851;51.166;4.760;2023-04-24T02:08:26;9.80;99.90
27384;DHT22;14851;51.166;4.760;2023-04-24T02:10:52;9.80;99.90
27384;DHT22;14851;51.166;4.760;2023-04-24T02:13:18;9.80;99.90
27384;DHT22;14851;51.166;4.760;2023-04-24T02:15:47;9.70;99.90
27384;DHT22;14851;51.166;4.760;2023-04-24T02:18:12;9.70;99.90
27384;DHT22;14851;51.166;4.760;2023-04-24T02:20:38;9.80;99.90
27384;DHT22;14851;51.166;4.760;2023-04-24T02:23:04;9.80;99.90
27384;DHT22;14851;51.166;4.760;2023-04-24T02:25:30;9.70;99.90
27384;DHT22;14851;51.166;4.760;2023-04-24T02:27:56;9.70;99.90
27384;DHT22;14851;51.166;4.760;2023-04-24T02:30:24;9.70;99.90
27384;DHT22;14851;51.166;4.760;2023-04-24T02:32:50;9.70;99.90
27384;DHT22;14851;51.166;4.760;2023-04-24T02:35:17;9.70;99.90
27384;DHT22;14851;51.166;4.760;2023-04-24T02:37:43;9.70;99.90
27384;DHT22;14851;51.166;4.760;2023-04-24T02:40:11;9.70;99.90
27384;DHT22;14851;51.166;4.760;2023-04-24T02:42:37;9.70;99.90
27384;DHT22;14851;51.166;4.760;2023-04-24T02:45:03;9.70;99.90
27384;DHT22;14851;51.166;4.760;2023-04-24T02:47:36;9.70;99.90
27384;DHT22;14851;51.166;4.760;2023-04-24T02:50:09;9.70;99.90
27384;DHT22;14851;51.166;4.760;2023-04-24T02:52:35;9.70;99.90
27384;DHT22;14851;51.166;4.760;2023-04-24T02:55:03;9.60;99.90
27384;DHT22;14851;51.166;4.760;2023-04-24T02:57:29;9.60;99.90
27384;DHT22;14851;51.166;4.760;2023-04-24T02:59:55;9.60;99.90
27384;DHT22;14851;51.166;4.760;2023-04-24T03:02:26;9.60;99.90
27384;DHT22;14851;51.166;4.760;2023-04-24T03:04:52;9.60;99.90
27384;DHT22;14851;51.166;4.760;2023-04-24T03:07:19;9.50;99.90
27384;DHT22;14851;51.166;4.760;2023-04-24T03:09:46;9.60;99.90
27384;DHT22;14851;51.166;4.760;2023-04-24T03:12:15;9.50;99.90
27384;DHT22;14851;51.166;4.760;2023-04-24T03:14:43;9.50;99.90
27384;DHT22;14851;51.166;4.760;2023-04-24T03:17:09;9.50;99.90
27384;DHT22;14851;51.166;4.760;2023-04-24T03:19:35;9.50;99.90
27384;DHT22;14851;51.166;4.760;2023-04-24T03:22:08;9.50;99.90
27384;DHT22;14851;51.166;4.760;2023-04-24T03:24:36;9.50;99.90
27384;DHT22;14851;51.166;4.760;2023-04-24T03:27:04;9.50;99.90
27384;DHT22;14851;51.166;4.760;2023-04-24T03:29:47;9.50;99.90
27384;DHT22;14851;51.166;4.760;2023-04-24T03:32:15;9.40;99.90
27384;DHT22;14851;51.166;4.760;2023-04-24T03:34:41;9.40;99.90
27384;DHT22;14851;51.166;4.760;2023-04-24T03:37:09;9.40;99.90
27384;DHT22;14851;51.166;4.760;2023-04-24T03:39:40;9.40;99.90
27384;DHT22;14851;51.166;4.760;2023-04-24T03:42:06;9.40;99.90
27384;DHT22;14851;51.166;4.760;2023-04-24T03:44:44;9.30;99.90
27384;DHT22;14851;51.166;4.760;2023-04-24T03:47:10;9.40;99.90
27384;DHT22;14851;51.166;4.760;2023-04-24T03:49:37;9.40;99.90
27384;DHT22;14851;51.166;4.760;2023-04-24T03:52:04;9.40;99.90
27384;DHT22;14851;51.166;4.760;2023-04-24T03:54:30;9.30;99.90
27384;DHT22;14851;51.166;4.760;2023-04-24T03:56:56;9.30;99.90
27384;DHT22;14851;51.166;4.760;2023-04-24T03:59:23;9.30;99.90
27384;DHT22;14851;51.166;4.760;2023-04-24T04:02:03;9.30;99.90
27384;DHT22;14851;51.166;4.760;2023-04-24T04:04:31;9.30;99.90
27384;DHT22;14851;51.166;4.760;2023-04-24T04:06:56;9.30;99.90
27384;DHT22;14851;51.166;4.760;2023-04-24T04:09:27;9.30;99.90
27384;DHT22;14851;51.166;4.760;2023-04-24T04:11:53;9.30;99.90
27384;DHT22;14851;51.166;4.760;2023-04-24T04:14:19;9.30;99.90
27384;DHT22;14851;51.166;4.760;2023-04-24T04:16:49;9.20;99.90
27384;DHT22;14851;51.166;4.760;2023-04-24T04:19:15;9.20;99.90
27384;DHT22;14851;51.166;4.760;2023-04-24T04:21:41;9.20;99.90
27384;DHT22;14851;51.166;4.760;2023-04-24T04:24:19;9.20;99.90
27384;DHT22;14851;51.166;4.760;2023-04-24T04:26:53;9.20;99.90
27384;DHT22;14851;51.166;4.760;2023-04-24T04:29:28;9.20;99.90
27384;DHT22;14851;51.166;4.760;2023-04-24T04:31:55;9.20;99.90
27384;DHT22;14851;51.166;4.760;2023-04-24T04:34:24;9.20;99.90
27384;DHT22;14851;51.166;4.760;2023-04-24T04:36:51;9.20;99.90
27384;DHT22;14851;51.166;4.760;2023-04-24T04:39:36;9.10;99.90
27384;DHT22;14851;51.166;4.760;2023-04-24T04:42:06;9.10;99.90
27384;DHT22;14851;51.166;4.760;2023-04-24T04:44:39;9.10;99.90
27384;DHT22;14851;51.166;4.760;2023-04-24T04:47:09;9.10;99.90
27384;DHT22;14851;51.166;4.760;2023-04-24T04:49:38;9.10;99.90
27384;DHT22;14851;51.166;4.760;2023-04-24T04:52:14;9.10;99.90
27384;DHT22;14851;51.166;4.760;2023-04-24T04:54:43;9.00;99.90
27384;DHT22;14851;51.166;4.760;2023-04-24T04:57:10;9.00;99.90
27384;DHT22;14851;51.166;4.760;2023-04-24T04:59:36;9.00;99.90
27384;DHT22;14851;51.166;4.760;2023-04-24T05:02:07;9.00;99.90
27384;DHT22;14851;51.166;4.760;2023-04-24T05:04:37;8.90;99.90
27384;DHT22;14851;51.166;4.760;2023-04-24T05:07:08;9.00;99.90
27384;DHT22;14851;51.166;4.760;2023-04-24T05:09:38;8.90;99.90
27384;DHT22;14851;51.166;4.760;2023-04-24T05:12:05;8.90;99.90
27384;DHT22;14851;51.166;4.760;2023-04-24T05:14:36;8.90;99.90
27384;DHT22;14851;51.166;4.760;2023-04-24T05:17:04;8.90;99.90
27384;DHT22;14851;51.166;4.760;2023-04-24T05:19:31;8.90;99.90
27384;DHT22;14851;51.166;4.760;2023-04-24T05:22:01;8.90;99.90
27384;DHT22;14851;51.166;4.760;2023-04-24T05:24:35;8.80;99.90
27384;DHT22;14851;51.166;4.760;2023-04-24T05:27:13;8.80;99.90
27384;DHT22;14851;51.166;4.760;2023-04-24T05:29:40;8.80;99.90
27384;DHT22;14851;51.166;4.760;2023-04-24T05:32:07;8.70;99.90
27384;DHT22;14851;51.166;4.760;2023-04-24T05:34:35;8.70;99.90
27384;DHT22;14851;51.166;4.760;2023-04-24T05:37:02;8.70;99.90
27384;DHT22;14851;51.166;4.760;2023-04-24T05:39:34;8.70;99.90
27384;DHT22;14851;51.166;4.760;2023-04-24T05:42:01;8.60;99.90
27384;DHT22;14851;51.166;4.760;2023-04-24T05:44:27;8.60;99.90
27384;DHT22;14851;51.166;4.760;2023-04-24T05:46:53;8.60;99.90
27384;DHT22;14851;51.166;4.760;2023-04-24T05:49:21;8.60;99.90
27384;DHT22;14851;51.166;4.760;2023-04-24T05:51:52;8.60;99.90
27384;DHT22;14851;51.166;4.760;2023-04-24T05:54:20;8.60;99.90
27384;DHT22;14851;51.166;4.760;2023-04-24T05:56:47;8.60;99.90
27384;DHT22;14851;51.166;4.760;2023-04-24T05:59:19;8.50;99.90
27384;DHT22;14851;51.166;4.760;2023-04-24T06:01:45;8.50;99.90
27384;DHT22;14851;51.166;4.760;2023-04-24T06:04:19;8.50;99.90
27384;DHT22;14851;51.166;4.760;2023-04-24T06:06:47;8.50;99.90
27384;DHT22;14851;51.166;4.760;2023-04-24T06:09:17;8.50;99.90
27384;DHT22;14851;51.166;4.760;2023-04-24T06:11:43;8.50;99.90
27384;DHT22;14851;51.166;4.760;2023-04-24T06:14:12;8.50;99.90
27384;DHT22;14851;51.166;4.760;2023-04-24T06:16:37;8.40;99.90
27384;DHT22;14851;51.166;4.760;2023-04-24T06:19:12;8.40;99.90
27384;DHT22;14851;51.166;4.760;2023-04-24T06:21:43;8.50;99.90
27384;DHT22;14851;51.166;4.760;2023-04-24T06:24:09;8.40;99.90
27384;DHT22;14851;51.166;4.760;2023-04-24T06:26:35;8.50;99.90
27384;DHT22;14851;51.166;4.760;2023-04-24T06:29:03;8.50;99.90
27384;DHT22;14851;51.166;4.760;2023-04-24T06:31:29;8.50;99.90
27384;DHT22;14851;51.166;4.760;2023-04-24T06:33:55;8.50;99.90
27384;DHT22;14851;51.166;4.760;2023-04-24T06:36:23;8.50;99.90
27384;DHT22;14851;51.166;4.760;2023-04-24T06:38:49;8.50;99.90
27384;DHT22;14851;51.166;4.760;2023-04-24T06:41:15;8.50;99.90
27384;DHT22;14851;51.166;4.760;2023-04-24T06:43:45;8.50;99.90
27384;DHT22;14851;51.166;4.760;2023-04-24T06:46:11;8.50;99.90
27384;DHT22;14851;51.166;4.760;2023-04-24T06:48:37;8.50;99.90
27384;DHT22;14851;51.166;4.760;2023-04-24T06:51:03;8.50;99.90
27384;DHT22;14851;51.166;4.760;2023-04-24T06:53:29;8.60;99.90
27384;DHT22;14851;51.166;4.760;2023-04-24T06:55:55;8.60;99.90
27384;DHT22;14851;51.166;4.760;2023-04-24T06:58:24;8.50;99.90
27384;DHT22;14851;51.166;4.760;2023-04-24T07:00:56;8.50;99.90
27384;DHT22;14851;51.166;4.760;2023-04-24T07:03:22;8.60;99.90
27384;DHT22;14851;51.166;4.760;2023-04-24T07:05:48;8.60;99.90
27384;DHT22;14851;51.166;4.760;2023-04-24T07:08:17;8.60;99.90
27384;DHT22;14851;51.166;4.760;2023-04-24T07:10:53;8.60;99.90
27384;DHT22;14851;51.166;4.760;2023-04-24T07:13:34;8.60;99.90
27384;DHT22;14851;51.166;4.760;2023-04-24T07:16:03;8.60;99.90
27384;DHT22;14851;51.166;4.760;2023-04-24T07:18:39;8.60;99.90
27384;DHT22;14851;51.166;4.760;2023-04-24T07:21:18;8.60;99.90
27384;DHT22;14851;51.166;4.760;2023-04-24T07:23:44;8.60;99.90
27384;DHT22;14851;51.166;4.760;2023-04-24T07:26:10;8.60;99.90
27384;DHT22;14851;51.166;4.760;2023-04-24T07:28:36;8.60;99.90
27384;DHT22;14851;51.166;4.760;2023-04-24T07:31:05;8.70;99.90
27384;DHT22;14851;51.166;4.760;2023-04-24T07:33:31;8.60;99.90
27384;DHT22;14851;51.166;4.760;2023-04-24T07:36:01;8.60;99.90
27384;DHT22;14851;51.166;4.760;2023-04-24T07:38:30;8.60;99.90
27384;DHT22;14851;51.166;4.760;2023-04-24T07:40:58;8.60;99.90
27384;DHT22;14851;51.166;4.760;2023-04-24T07:43:26;8.70;99.90
27384;DHT22;14851;51.166;4.760;2023-04-24T07:45:55;8.70;99.90
27384;DHT22;14851;51.166;4.760;2023-04-24T07:48:21;8.70;99.90
27384;DHT22;14851;51.166;4.760;2023-04-24T07:50:50;8.70;99.90
27384;DHT22;14851;51.166;4.760;2023-04-24T07:53:24;8.70;99.90
27384;DHT22;14851;51.166;4.760;2023-04-24T07:55:50;8.80;99.90
27384;DHT22;14851;51.166;4.760;2023-04-24T07:58:18;8.80;99.90
27384;DHT22;14851;51.166;4.760;2023-04-24T08:00:44;8.90;99.90
27384;DHT22;14851;51.166;4.760;2023-04-24T08:03:12;8.90;99.90
27384;DHT22;14851;51.166;4.760;2023-04-24T08:05:41;8.90;99.90
27384;DHT22;14851;51.166;4.760;2023-04-24T08:08:12;8.90;99.90
27384;DHT22;14851;51.166;4.760;2023-04-24T08:13:36;9.00;99.90
27384;DHT22;14851;51.166;4.760;2023-04-24T08:16:18;9.10;99.90
27384;DHT22;14851;51.166;4.760;2023-04-24T08:18:43;9.10;99.90
27384;DHT22;14851;51.166;4.760;2023-04-24T08:21:12;9.10;99.90
27384;DHT22;14851;51.166;4.760;2023-04-24T08:23:45;9.20;99.90
27384;DHT22;14851;51.166;4.760;2023-04-24T08:26:12;9.20;99.90
27384;DHT22;14851;51.166;4.760;2023-04-24T08:28:40;9.30;99.90
27384;DHT22;14851;51.166;4.760;2023-04-24T08:31:09;9.20;99.90
27384;DHT22;14851;51.166;4.760;2023-04-24T08:33:39;9.30;99.90
27384;DHT22;14851;51.166;4.760;2023-04-24T08:36:10;9.30;99.90
27384;DHT22;14851;51.166;4.760;2023-04-24T08:38:42;9.30;99.90
27384;DHT22;14851;51.166;4.760;2023-04-24T08:41:09;9.30;99.90
27384;DHT22;14851;51.166;4.760;2023-04-24T08:43:38;9.30;99.90
27384;DHT22;14851;51.166;4.760;2023-04-24T08:46:06;9.30;99.90
27384;DHT22;14851;51.166;4.760;2023-04-24T08:48:32;9.30;99.90
27384;DHT22;14851;51.166;4.760;2023-04-24T08:50:59;9.20;99.90
27384;DHT22;14851;51.166;4.760;2023-04-24T08:53:26;9.30;99.90
27384;DHT22;14851;51.166;4.760;2023-04-24T08:55:54;9.20;99.90
27384;DHT22;14851;51.166;4.760;2023-04-24T08:58:25;9.20;99.90
27384;DHT22;14851;51.166;4.760;2023-04-24T09:00:54;9.20;99.90
27384;DHT22;14851;51.166;4.760;2023-04-24T09:03:21;9.30;99.90
27384;DHT22;14851;51.166;4.760;2023-04-24T09:05:48;9.20;99.90
27384;DHT22;14851;51.166;4.760;2023-04-24T09:08:18;9.20;99.90
27384;DHT22;14851;51.166;4.760;2023-04-24T09:10:44;9.20;99.90
27384;DHT22;14851;51.166;4.760;2023-04-24T09:13:10;9.20;99.90
27384;DHT22;14851;51.166;4.760;2023-04-24T09:15:39;9.20;99.90
27384;DHT22;14851;51.166;4.760;2023-04-24T09:18:08;9.30;99.90
27384;DHT22;14851;51.166;4.760;2023-04-24T09:20:34;9.40;99.90
27384;DHT22;14851;51.166;4.760;2023-04-24T09:23:01;9.60;99.90
27384;DHT22;14851;51.166;4.760;2023-04-24T09:25:34;9.60;99.90
27384;DHT22;14851;51.166;4.760;2023-04-24T09:28:07;9.70;99.90
27384;DHT22;14851;51.166;4.760;2023-04-24T09:30:33;9.60;99.90
27384;DHT22;14851;51.166;4.760;2023-04-24T09:33:15;9.60;99.90
27384;DHT22;14851;51.166;4.760;2023-04-24T09:35:51;9.60;99.90
27384;DHT22;14851;51.166;4.760;2023-04-24T09:38:17;9.70;99.90
27384;DHT22;14851;51.166;4.760;2023-04-24T09:40:43;9.70;99.90
27384;DHT22;14851;51.166;4.760;2023-04-24T09:43:12;9.80;99.90
27384;DHT22;14851;51.166;4.760;2023-04-24T09:45:41;9.80;99.90
27384;DHT22;14851;51.166;4.760;2023-04-24T09:48:11;9.70;99.90
27384;DHT22;14851;51.166;4.760;2023-04-24T09:50:37;9.70;99.90
27384;DHT22;14851;51.166;4.760;2023-04-24T09:53:06;9.70;99.90
27384;DHT22;14851;51.166;4.760;2023-04-24T09:55:39;9.70;99.90
27384;DHT22;14851;51.166;4.760;2023-04-24T09:58:08;9.70;99.90
27384;DHT22;14851;51.166;4.760;2023-04-24T10:00:34;9.60;99.90
27384;DHT22;14851;51.166;4.760;2023-04-24T10:03:02;9.70;99.90
27384;DHT22;14851;51.166;4.760;2023-04-24T10:05:35;9.60;99.90
27384;DHT22;14851;51.166;4.760;2023-04-24T10:08:06;9.60;99.90
27384;DHT22;14851;51.166;4.760;2023-04-24T10:10:40;9.60;99.90
27384;DHT22;14851;51.166;4.760;2023-04-24T10:13:13;9.60;99.90
27384;DHT22;14851;51.166;4.760;2023-04-24T10:15:41;9.70;99.90
27384;DHT22;14851;51.166;4.760;2023-04-24T10:18:08;9.80;99.90
27384;DHT22;14851;51.166;4.760;2023-04-24T10:20:39;9.90;99.90
27384;DHT22;14851;51.166;4.760;2023-04-24T10:23:05;9.80;99.90
27384;DHT22;14851;51.166;4.760;2023-04-24T10:25:33;9.80;99.90
27384;DHT22;14851;51.166;4.760;2023-04-24T10:28:01;9.70;99.90
27384;DHT22;14851;51.166;4.760;2023-04-24T10:30:31;9.80;99.90
27384;DHT22;14851;51.166;4.760;2023-04-24T10:33:04;9.90;99.90
27384;DHT22;14851;51.166;4.760;2023-04-24T10:35:31;10.00;99.90
27384;DHT22;14851;51.166;4.760;2023-04-24T10:38:08;10.00;99.90
27384;DHT22;14851;51.166;4.760;2023-04-24T10:40:35;10.10;99.90
27384;DHT22;14851;51.166;4.760;2023-04-24T10:43:05;10.10;99.90
27384;DHT22;14851;51.166;4.760;2023-04-24T10:45:34;10.10;99.90
27384;DHT22;14851;51.166;4.760;2023-04-24T10:48:04;10.10;99.90
27384;DHT22;14851;51.166;4.760;2023-04-24T10:50:50;10.10;99.90
27384;DHT22;14851;51.166;4.760;2023-04-24T10:53:23;10.10;99.90
27384;DHT22;14851;51.166;4.760;2023-04-24T10:55:50;10.10;99.90
27384;DHT22;14851;51.166;4.760;2023-04-24T10:58:21;10.10;99.90
27384;DHT22;14851;51.166;4.760;2023-04-24T11:00:58;10.10;99.90
27384;DHT22;14851;51.166;4.760;2023-04-24T11:03:28;10.10;99.90
27384;DHT22;14851;51.166;4.760;2023-04-24T11:06:09;10.10;99.90
27384;DHT22;14851;51.166;4.760;2023-04-24T11:08:43;10.20;99.90
27384;DHT22;14851;51.166;4.760;2023-04-24T11:11:14;10.20;99.90
27384;DHT22;14851;51.166;4.760;2023-04-24T11:19:04;10.40;99.90
27384;DHT22;14851;51.166;4.760;2023-04-24T11:22:01;10.50;99.90
27384;DHT22;14851;51.166;4.760;2023-04-24T11:24:29;10.50;99.90
27384;DHT22;14851;51.166;4.760;2023-04-24T11:27:05;10.50;99.90
27384;DHT22;14851;51.166;4.760;2023-04-24T11:29:41;10.50;99.90
27384;DHT22;14851;51.166;4.760;2023-04-24T11:34:41;10.60;99.90
27384;DHT22;14851;51.166;4.760;2023-04-24T11:37:13;10.70;99.90
27384;DHT22;14851;51.166;4.760;2023-04-24T11:39:40;10.70;99.90
27384;DHT22;14851;51.166;4.760;2023-04-24T11:42:07;10.70;99.90
27384;DHT22;14851;51.166;4.760;2023-04-24T11:44:34;10.70;99.90
27384;DHT22;14851;51.166;4.760;2023-04-24T11:47:00;10.70;99.90
27384;DHT22;14851;51.166;4.760;2023-04-24T11:49:26;10.80;99.90
27384;DHT22;14851;51.166;4.760;2023-04-24T11:51:56;10.80;99.90
27384;DHT22;14851;51.166;4.760;2023-04-24T11:54:24;10.90;99.90
27384;DHT22;14851;51.166;4.760;2023-04-24T11:56:50;10.90;99.90
27384;DHT22;14851;51.166;4.760;2023-04-24T11:59:19;10.90;99.90
27384;DHT22;14851;51.166;4.760;2023-04-24T12:01:48;10.90;99.90
27384;DHT22;14851;51.166;4.760;2023-04-24T12:04:16;10.90;99.90
27384;DHT22;14851;51.166;4.760;2023-04-24T12:07:04;11.00;99.90
27384;DHT22;14851;51.166;4.760;2023-04-24T12:09:48;11.00;99.90
27384;DHT22;14851;51.166;4.760;2023-04-24T12:12:18;11.00;99.90
27384;DHT22;14851;51.166;4.760;2023-04-24T12:14:49;11.00;99.90
27384;DHT22;14851;51.166;4.760;2023-04-24T12:17:17;11.00;99.90
27384;DHT22;14851;51.166;4.760;2023-04-24T12:20:00;11.10;99.90
27384;DHT22;14851;51.166;4.760;2023-04-24T12:22:27;11.10;99.90
27384;DHT22;14851;51.166;4.760;2023-04-24T12:27:23;11.20;99.90
27384;DHT22;14851;51.166;4.760;2023-04-24T12:29:56;11.30;99.90
27384;DHT22;14851;51.166;4.760;2023-04-24T12:32:23;11.30;99.90
27384;DHT22;14851;51.166;4.760;2023-04-24T12:34:53;11.30;99.90
27384;DHT22;14851;51.166;4.760;2023-04-24T12:37:19;11.30;99.90
27384;DHT22;14851;51.166;4.760;2023-04-24T12:40:06;11.30;99.90
27384;DHT22;14851;51.166;4.760;2023-04-24T12:42:34;11.30;99.90
27384;DHT22;14851;51.166;4.760;2023-04-24T12:45:05;11.40;99.90
27384;DHT22;14851;51.166;4.760;2023-04-24T12:47:33;11.40;99.90
27384;DHT22;14851;51.166;4.760;2023-04-24T12:50:00;11.40;99.90
27384;DHT22;14851;51.166;4.760;2023-04-24T12:52:28;11.40;99.90
27384;DHT22;14851;51.166;4.760;2023-04-24T12:54:57;11.40;99.90
27384;DHT22;14851;51.166;4.760;2023-04-24T12:57:24;11.40;99.90
27384;DHT22;14851;51.166;4.760;2023-04-24T12:59:55;11.40;99.90
27384;DHT22;14851;51.166;4.760;2023-04-24T13:02:25;11.50;99.90
27384;DHT22;14851;51.166;4.760;2023-04-24T13:04:52;11.50;99.90
27384;DHT22;14851;51.166;4.760;2023-04-24T13:07:20;11.60;99.90
27384;DHT22;14851;51.166;4.760;2023-04-24T13:09:48;11.60;99.90
27384;DHT22;14851;51.166;4.760;2023-04-24T13:12:15;11.70;99.90
27384;DHT22;14851;51.166;4.760;2023-04-24T13:14:41;11.70;99.90
27384;DHT22;14851;51.166;4.760;2023-04-24T13:17:07;11.70;99.90
27384;DHT22;14851;51.166;4.760;2023-04-24T13:19:37;11.80;99.90
27384;DHT22;14851;51.166;4.760;2023-04-24T13:22:04;11.70;99.90
27384;DHT22;14851;51.166;4.760;2023-04-24T13:24:30;11.80;99.90
27384;DHT22;14851;51.166;4.760;2023-04-24T13:26:59;11.80;99.90
27384;DHT22;14851;51.166;4.760;2023-04-24T13:29:26;11.80;99.90
27384;DHT22;14851;51.166;4.760;2023-04-24T13:31:55;11.80;99.90
27384;DHT22;14851;51.166;4.760;2023-04-24T13:34:25;11.80;99.90
27384;DHT22;14851;51.166;4.760;2023-04-24T13:36:53;11.70;99.90
27384;DHT22;14851;51.166;4.760;2023-04-24T13:39:20;11.70;99.90
27384;DHT22;14851;51.166;4.760;2023-04-24T13:41:46;11.80;99.90
27384;DHT22;14851;51.166;4.760;2023-04-24T13:44:17;11.90;99.90
27384;DHT22;14851;51.166;4.760;2023-04-24T13:46:45;12.00;99.90
27384;DHT22;14851;51.166;4.760;2023-04-24T13:49:14;12.10;99.90
27384;DHT22;14851;51.166;4.760;2023-04-24T13:51:41;12.20;99.90
27384;DHT22;14851;51.166;4.760;2023-04-24T13:54:09;12.30;99.90
27384;DHT22;14851;51.166;4.760;2023-04-24T13:56:39;12.20;99.90
27384;DHT22;14851;51.166;4.760;2023-04-24T13:59:05;12.20;99.90
27384;DHT22;14851;51.166;4.760;2023-04-24T14:01:31;12.20;99.90
27384;DHT22;14851;51.166;4.760;2023-04-24T14:03:57;12.20;99.90
27384;DHT22;14851;51.166;4.760;2023-04-24T14:06:23;12.20;99.90
27384;DHT22;14851;51.166;4.760;2023-04-24T14:08:50;12.20;99.90
27384;DHT22;14851;51.166;4.760;2023-04-24T14:11:17;12.20;99.90
27384;DHT22;14851;51.166;4.760;2023-04-24T14:13:43;12.20;99.90
27384;DHT22;14851;51.166;4.760;2023-04-24T14:16:09;12.20;99.90
27384;DHT22;14851;51.166;4.760;2023-04-24T14:18:36;12.30;99.90
27384;DHT22;14851;51.166;4.760;2023-04-24T14:21:03;12.40;99.90
27384;DHT22;14851;51.166;4.760;2023-04-24T14:23:29;12.40;99.90
27384;DHT22;14851;51.166;4.760;2023-04-24T14:25:59;12.50;99.90
27384;DHT22;14851;51.166;4.760;2023-04-24T14:28:25;12.60;99.90
27384;DHT22;14851;51.166;4.760;2023-04-24T14:30:53;12.60;99.90
27384;DHT22;14851;51.166;4.760;2023-04-24T14:33:21;12.80;99.90
27384;DHT22;14851;51.166;4.760;2023-04-24T14:35:47;12.80;99.90
27384;DHT22;14851;51.166;4.760;2023-04-24T14:38:15;12.80;99.90
27384;DHT22;14851;51.166;4.760;2023-04-24T14:40:41;12.80;99.90
27384;DHT22;14851;51.166;4.760;2023-04-24T14:43:07;12.80;99.90
27384;DHT22;14851;51.166;4.760;2023-04-24T14:45:33;12.70;99.90
27384;DHT22;14851;51.166;4.760;2023-04-24T14:47:59;12.70;99.90
27384;DHT22;14851;51.166;4.760;2023-04-24T14:50:25;12.80;99.90
27384;DHT22;14851;51.166;4.760;2023-04-24T14:52:55;12.80;99.90
27384;DHT22;14851;51.166;4.760;2023-04-24T14:55:24;12.80;99.90
27384;DHT22;14851;51.166;4.760;2023-04-24T14:57:50;12.80;99.90
27384;DHT22;14851;51.166;4.760;2023-04-24T15:00:17;12.80;99.90
27384;DHT22;14851;51.166;4.760;2023-04-24T15:02:43;12.80;99.90
27384;DHT22;14851;51.166;4.760;2023-04-24T15:05:11;12.90;99.90
27384;DHT22;14851;51.166;4.760;2023-04-24T15:07:39;13.00;99.90
27384;DHT22;14851;51.166;4.760;2023-04-24T15:10:07;12.90;99.90
27384;DHT22;14851;51.166;4.760;2023-04-24T15:12:36;12.80;99.90
27384;DHT22;14851;51.166;4.760;2023-04-24T15:15:05;12.80;99.90
27384;DHT22;14851;51.166;4.760;2023-04-24T15:17:31;12.80;99.90
27384;DHT22;14851;51.166;4.760;2023-04-24T15:19:56;12.60;99.90
27384;DHT22;14851;51.166;4.760;2023-04-24T15:22:26;12.70;99.90
27384;DHT22;14851;51.166;4.760;2023-04-24T15:24:52;12.70;99.90
27384;DHT22;14851;51.166;4.760;2023-04-24T15:27:18;12.60;99.90
27384;DHT22;14851;51.166;4.760;2023-04-24T15:29:43;12.50;99.90
27384;DHT22;14851;51.166;4.760;2023-04-24T15:32:10;12.50;99.90
27384;DHT22;14851;51.166;4.760;2023-04-24T15:34:36;12.50;99.90
27384;DHT22;14851;51.166;4.760;2023-04-24T15:37:02;12.50;99.90
27384;DHT22;14851;51.166;4.760;2023-04-24T15:39:28;12.50;99.90
27384;DHT22;14851;51.166;4.760;2023-04-24T15:41:54;12.50;99.90
27384;DHT22;14851;51.166;4.760;2023-04-24T15:44:21;12.50;99.90
27384;DHT22;14851;51.166;4.760;2023-04-24T15:46:47;12.50;99.90
27384;DHT22;14851;51.166;4.760;2023-04-24T15:49:13;12.50;99.90
27384;DHT22;14851;51.166;4.760;2023-04-24T15:51:38;12.60;99.90
27384;DHT22;14851;51.166;4.760;2023-04-24T15:54:04;12.60;99.90
27384;DHT22;14851;51.166;4.760;2023-04-24T15:56:30;12.50;99.90
27384;DHT22;14851;51.166;4.760;2023-04-24T15:58:57;12.40;99.90
27384;DHT22;14851;51.166;4.760;2023-04-24T16:01:23;12.30;99.90